This is the latest recevied weather packets stored in our database for station/object BV3BA-13. If no packets are shown the sender has not sent any weather packets the latest 1 day(s).
| Time | Temp. | Humidity | Pressure | Rain* | Wind** | Luminosity | Snow |
|---|---|---|---|---|---|---|---|
| 1778090224 | 21.67° C | 94% | 1008.4 hPa | 0 mm | - | - | - |
| 1778089624 | 21.11° C | 94% | 1008.5 hPa | 0 mm | - | - | - |
| 1778089024 | 21.67° C | 95% | 1008.5 hPa | 0 mm | - | - | - |
| 1778081824 | 22.22° C | 92% | 1009.1 hPa | 0 mm | - | - | - |
| 1778080624 | 22.22° C | 90% | 1009.3 hPa | 0 mm | - | - | - |
| 1778075824 | 22.78° C | 88% | 1009.4 hPa | 0 mm | - | - | - |
| 1778073424 | 22.78° C | 87% | 1009.2 hPa | 0 mm | - | - | - |
| 1778072824 | 23.33° C | 86% | 1009.2 hPa | 0 mm | - | - | - |
| 1778071625 | 23.33° C | 86% | 1009 hPa | 0 mm | - | - | - |
| 1778061423 | 25° C | 79% | 1008.3 hPa | 0 mm | - | - | - |
| 1778060824 | 25° C | 78% | 1008.3 hPa | 0 mm | - | - | - |
| 1778059024 | 25° C | 76% | 1008.3 hPa | 0 mm | - | - | - |
| 1778058423 | 25.56° C | 77% | 1008.2 hPa | 0 mm | - | - | - |
| 1778057824 | 25.56° C | 76% | 1008.2 hPa | 0 mm | - | - | - |
| 1778056624 | 25.56° C | 74% | 1008.3 hPa | 0 mm | - | - | - |
| 1778056023 | 26.11° C | 74% | 1008.4 hPa | 0 mm | - | - | - |
| 1778055425 | 26.11° C | 74% | 1008.5 hPa | 0 mm | - | - | - |
| 1778054224 | 25.56° C | 73% | 1008.7 hPa | 0 mm | - | - | - |
| 1778053624 | 26.11° C | 74% | 1008.7 hPa | 0 mm | - | - | - |
| 1778053024 | 26.11° C | 75% | 1008.8 hPa | 0 mm | - | - | - |
| 1778050024 | 25.56° C | 75% | 1009.2 hPa | 0 mm | - | - | - |
| 1778048224 | 26.11° C | 76% | 1009.1 hPa | 0 mm | - | - | - |
| 1778047624 | 26.11° C | 73% | 1009.1 hPa | 0 mm | - | - | - |
| 1778046424 | 25.56° C | 76% | 1009.4 hPa | 0 mm | - | - | - |
| 1778045824 | 26.11° C | 74% | 1009.5 hPa | 0 mm | - | - | - |
* Rain latest hour (hover to see other rain measurements)
** Current wind speed in m/s (hover to see current wind gust speed)